createdAt,value
2022-10-17T00:04:41.108Z,23.63
2022-10-17T00:09:44.744Z,24.83
2022-10-17T00:14:49.736Z,24.73
2022-10-17T00:19:53.174Z,25.30
2022-10-17T00:24:56.676Z,25.47
2022-10-17T00:30:02.540Z,25.50
2022-10-17T00:35:16.608Z,26.93
2022-10-17T00:40:20.903Z,25.53
2022-10-17T00:45:29.596Z,25.50
2022-10-17T00:50:33.524Z,23.37
2022-10-17T00:55:39.364Z,21.93
2022-10-17T01:06:28.444Z,21.10
2022-10-17T01:11:41.024Z,23.37
2022-10-17T01:16:52.230Z,23.83
2022-10-17T01:21:56.940Z,24.07
2022-10-17T01:27:19.675Z,22.93
2022-10-17T01:32:29.379Z,23.43
2022-10-17T01:37:35.331Z,22.23
2022-10-17T01:42:43.507Z,23.57
2022-10-17T01:47:51.039Z,24.07
2022-10-17T01:52:57.170Z,25.97
2022-10-17T01:58:04.095Z,24.00
2022-10-17T02:03:13.795Z,24.43
2022-10-17T02:08:27.119Z,21.93
2022-10-17T02:13:39.268Z,21.57
2022-10-17T02:18:59.791Z,21.00
2022-10-17T02:24:07.432Z,22.63
2022-10-17T02:29:16.710Z,21.07
2022-10-17T02:34:26.402Z,20.37
2022-10-17T02:39:30.446Z,22.10
2022-10-17T02:44:34.670Z,21.40
2022-10-17T02:49:42.013Z,20.83
2022-10-17T02:54:49.582Z,22.53
2022-10-17T02:59:53.452Z,21.13
2022-10-17T03:04:59.138Z,21.80
2022-10-17T03:10:03.482Z,25.33
2022-10-17T03:15:09.118Z,24.73
2022-10-17T03:20:15.698Z,23.43
2022-10-17T03:25:20.549Z,20.33
2022-10-17T03:30:26.402Z,21.70
2022-10-17T03:35:32.617Z,21.93
2022-10-17T03:40:37.415Z,21.60
2022-10-17T03:45:41.958Z,22.93
2022-10-17T03:50:47.423Z,21.70
2022-10-17T03:55:51.454Z,25.03
2022-10-17T04:00:55.886Z,27.00
2022-10-17T04:06:02.163Z,25.93
2022-10-17T04:11:09.297Z,22.63
2022-10-17T04:16:14.865Z,22.47
2022-10-17T04:21:29.916Z,20.83
2022-10-17T04:26:38.089Z,21.13
2022-10-17T04:31:42.254Z,19.53
2022-10-17T04:36:57.233Z,18.93
2022-10-17T04:42:02.885Z,22.10
2022-10-17T04:47:09.924Z,23.10
2022-10-17T04:52:17.607Z,22.80
2022-10-17T04:57:25.261Z,22.63
2022-10-17T05:02:38.196Z,21.97
2022-10-17T05:07:44.156Z,20.73
2022-10-17T05:12:51.629Z,19.33
2022-10-17T05:24:19.752Z,19.30
2022-10-17T05:29:36.862Z,20.17
2022-10-17T05:35:08.499Z,18.10
2022-10-17T05:40:42.719Z,17.07
2022-10-17T05:45:48.481Z,18.17
2022-10-17T05:50:59.956Z,17.93
2022-10-17T05:56:08.116Z,18.53
2022-10-17T06:06:51.524Z,16.77
2022-10-17T06:17:40.735Z,18.77
2022-10-17T06:22:44.399Z,18.33
2022-10-17T06:33:03.488Z,16.73
2022-10-17T06:38:07.427Z,15.47
2022-10-17T06:43:13.815Z,15.07
2022-10-17T06:48:45.340Z,15.27
2022-10-17T06:53:56.602Z,15.73
2022-10-17T06:59:10.459Z,14.37
2022-10-17T07:04:17.463Z,14.00
2022-10-17T07:09:21.188Z,12.60
2022-10-17T07:14:31.939Z,11.80
2022-10-17T07:19:37.363Z,11.70
2022-10-17T07:24:41.045Z,10.80
2022-10-17T07:29:52.190Z,11.80
2022-10-17T07:35:16.317Z,10.50
2022-10-17T07:40:20.061Z,11.00
2022-10-17T07:45:27.776Z,9.40
2022-10-17T07:50:33.259Z,9.87
2022-10-17T07:55:39.009Z,11.20
2022-10-17T08:00:43.062Z,9.50
2022-10-17T08:05:49.607Z,10.15
2022-10-17T08:10:54.369Z,9.40
2022-10-17T08:16:01.238Z,9.10
2022-10-17T08:21:08.638Z,9.07
2022-10-17T08:26:17.506Z,8.73
2022-10-17T08:31:47.871Z,9.75
2022-10-17T08:36:54.428Z,9.57
2022-10-17T08:42:10.459Z,10.27
2022-10-17T08:53:10.760Z,8.48
2022-10-17T08:58:16.009Z,9.40
2022-10-17T09:03:32.949Z,9.88
2022-10-17T09:08:46.284Z,10.30
2022-10-17T09:13:59.056Z,10.38
2022-10-17T09:19:10.440Z,9.65
2022-10-17T09:24:19.120Z,9.93
2022-10-17T09:29:29.606Z,9.43
2022-10-17T09:35:32.449Z,9.07
2022-10-17T09:40:38.657Z,9.52
2022-10-17T09:45:50.228Z,9.40
2022-10-17T09:51:25.680Z,8.98
2022-10-17T10:04:20.295Z,9.18
2022-10-17T10:09:26.176Z,9.02
2022-10-17T10:14:34.516Z,8.32
2022-10-17T10:19:41.165Z,7.95
2022-10-17T10:24:45.076Z,7.97
2022-10-17T10:29:51.547Z,8.50
2022-10-17T10:34:59.247Z,8.05
2022-10-17T10:40:04.765Z,8.05
2022-10-17T10:45:35.972Z,7.57
2022-10-17T10:50:46.807Z,7.68
2022-10-17T10:55:52.784Z,7.28
2022-10-17T11:00:58.482Z,7.60
2022-10-17T11:06:07.812Z,7.68
2022-10-17T11:11:18.352Z,7.03
2022-10-17T11:16:31.048Z,7.13
2022-10-17T11:21:57.088Z,7.18
2022-10-17T11:27:02.548Z,6.90
2022-10-17T11:43:39.729Z,6.90
2022-10-17T11:48:50.148Z,7.05
2022-10-17T11:59:35.167Z,7.80
2022-10-17T12:10:35.618Z,7.00
2022-10-17T12:15:44.670Z,6.57
2022-10-17T12:20:57.298Z,6.25
2022-10-17T12:26:05.282Z,7.45
2022-10-17T12:31:13.695Z,7.25
2022-10-17T12:36:38.265Z,6.38
2022-10-17T12:41:55.476Z,8.15
2022-10-17T12:53:04.830Z,6.00
2022-10-17T12:58:14.831Z,7.70
2022-10-17T13:03:19.758Z,7.55
2022-10-17T13:08:26.816Z,8.27
2022-10-17T13:20:00.402Z,7.47
2022-10-17T13:40:49.066Z,17.55
2022-10-17T13:52:42.150Z,8.23
2022-10-17T13:57:45.647Z,8.52
2022-10-17T14:02:49.554Z,23.00
2022-10-17T14:08:11.422Z,6.80
2022-10-17T14:13:23.789Z,9.20
2022-10-17T14:18:34.834Z,15.00
2022-10-17T14:23:41.053Z,13.27
2022-10-17T14:28:46.297Z,18.33
2022-10-17T14:33:51.112Z,11.35
2022-10-17T14:38:56.212Z,10.80
2022-10-17T14:44:01.080Z,8.38
2022-10-17T14:49:07.532Z,7.07
2022-10-17T14:54:21.837Z,6.47
2022-10-17T14:59:52.053Z,5.93
2022-10-17T15:04:49.292Z,6.43
2022-10-17T15:09:54.998Z,6.65
2022-10-17T15:14:58.388Z,7.47
2022-10-17T15:20:01.739Z,9.13
2022-10-17T15:25:07.691Z,8.20
2022-10-17T15:30:21.631Z,9.13
2022-10-17T15:35:25.932Z,8.93
2022-10-17T15:40:31.115Z,10.65
2022-10-17T15:45:35.939Z,9.75
2022-10-17T15:50:39.381Z,9.02
2022-10-17T15:55:44.091Z,11.38
2022-10-17T16:00:47.734Z,17.63
2022-10-17T16:05:51.103Z,20.13
2022-10-17T16:10:55.973Z,32.92
2022-10-17T16:15:59.335Z,23.40
2022-10-17T16:21:02.648Z,24.90
2022-10-17T16:26:07.591Z,34.88
2022-10-17T16:31:21.131Z,36.70
2022-10-17T16:36:24.644Z,29.17
2022-10-17T16:41:31.214Z,26.45
2022-10-17T16:46:35.240Z,33.03
2022-10-17T16:51:38.760Z,37.88
2022-10-17T16:56:43.546Z,40.40
2022-10-17T17:01:48.953Z,38.13
2022-10-17T17:06:52.378Z,28.38
2022-10-17T17:11:57.166Z,27.13
2022-10-17T17:17:00.530Z,26.15
2022-10-17T17:22:03.941Z,22.40
2022-10-17T17:27:11.302Z,32.22
2022-10-17T17:32:16.914Z,30.10
2022-10-17T17:37:20.300Z,22.33
2022-10-17T17:42:25.116Z,18.63
2022-10-17T17:47:30.263Z,16.10
2022-10-17T17:52:33.974Z,17.80
2022-10-17T17:57:38.727Z,25.05
2022-10-17T18:02:44.363Z,27.17
2022-10-17T18:07:47.958Z,20.38
2022-10-17T18:13:17.326Z,15.55
2022-10-17T18:18:20.743Z,14.25
2022-10-17T18:23:24.550Z,22.42
2022-10-17T18:28:29.630Z,26.00
2022-10-17T18:33:33.102Z,34.05
2022-10-17T18:38:37.073Z,19.85
2022-10-17T18:43:43.441Z,23.50
2022-10-17T18:48:48.013Z,19.90
2022-10-17T18:53:52.967Z,14.63
2022-10-17T18:58:58.653Z,11.95
2022-10-17T19:04:02.033Z,8.93
2022-10-17T19:09:07.237Z,10.43
2022-10-17T19:14:14.146Z,9.93
2022-10-17T19:19:22.157Z,10.23
2022-10-17T19:24:28.824Z,13.35
2022-10-17T19:29:33.669Z,15.45
2022-10-17T19:34:37.264Z,15.38
2022-10-17T19:39:40.708Z,13.52
2022-10-17T19:52:16.730Z,14.55
2022-10-17T19:57:47.469Z,13.83
2022-10-17T20:02:50.913Z,14.25
2022-10-17T20:07:54.373Z,8.32
2022-10-17T20:13:47.846Z,8.73
2022-10-17T20:18:56.405Z,10.88
2022-10-17T20:24:05.977Z,8.50
2022-10-17T20:29:12.257Z,11.20
2022-10-17T20:34:22.621Z,9.32
2022-10-17T20:39:51.220Z,11.65
2022-10-17T20:45:00.499Z,15.40
2022-10-17T20:50:18.433Z,11.57
2022-10-17T20:55:22.524Z,15.38
2022-10-17T21:00:26.568Z,10.00
2022-10-17T23:01:48.911Z,5.97
2022-10-17T23:06:53.087Z,5.57
2022-10-17T23:11:57.622Z,5.83
2022-10-17T23:17:03.124Z,6.27
2022-10-17T23:22:08.930Z,5.63
2022-10-17T23:27:15.123Z,5.57
2022-10-17T23:32:23.855Z,6.37
2022-10-17T23:37:31.654Z,5.70
2022-10-17T23:42:37.584Z,6.00
2022-10-17T23:47:44.771Z,5.93
